Time;durP1;ratioP1;P1;durP2;ratioP2;P2;SDS_P1;SDS_P2;PMS_P1;PMS_P2;Temp;Humidity;BMP_temperature;BMP_pressure;BME280_temperature;BME280_humidity;BME280_pressure;Samples;Min_cycle;Max_cycle;Signal;HPM_P1;HPM_P2
2022/03/04 06:10:51;;;;;;;39.10;14.10;;;-1.00;99.90;;;;;;4763855;23;20087;-85
2022/03/04 06:13:30;;;;;;;;;;;;;;;;;;;;;
2022/03/04 06:16:02;;;;;;;41.58;16.60;;;-0.90;99.90;;;;;;4917007;29;20055;-85
2022/03/04 06:18:54;;;;;;;33.05;12.00;;;-0.90;99.90;;;;;;4917070;29;20107;-84
2022/03/04 06:21:31;;;;;;;32.10;12.05;;;-0.90;99.90;;;;;;4917041;29;20082;-85
2022/03/04 06:24:14;;;;;;;30.95;13.07;;;-0.90;99.90;;;;;;4901269;29;20047;-85
2022/03/04 06:26:46;;;;;;;41.20;13.60;;;-0.90;99.90;;;;;;4917363;29;20550;-85
2022/03/04 06:29:12;;;;;;;30.75;12.38;;;-0.90;99.90;;;;;;4901417;29;20557;-83
2022/03/04 06:31:48;;;;;;;41.47;15.02;;;-0.90;99.90;;;;;;4917255;29;20130;-87
2022/03/04 06:34:26;;;;;;;40.08;15.10;;;-0.90;99.90;;;;;;4923797;23;20180;-86
2022/03/04 06:36:54;;;;;;;36.75;12.55;;;-0.80;99.90;;;;;;4899635;29;20411;-86
2022/03/04 06:39:20;;;;;;;49.58;20.20;;;-0.80;99.90;;;;;;4897888;29;20036;-86
2022/03/04 06:41:48;;;;;;;40.83;15.35;;;-0.80;99.90;;;;;;4914284;29;20040;-83
2022/03/04 06:44:15;;;;;;;32.92;15.07;;;-0.80;99.90;;;;;;4904715;29;20428;-84
2022/03/04 06:46:40;;;;;;;36.72;14.40;;;-0.70;99.90;;;;;;4879664;29;20409;-83
2022/03/04 06:49:10;;;;;;;36.97;13.60;;;-0.80;99.90;;;;;;4910473;29;20072;-84
2022/03/04 06:51:39;;;;;;;43.85;17.45;;;-0.70;99.90;;;;;;4909911;29;20048;-84
2022/03/04 06:54:05;;;;;;;41.67;17.20;;;-0.80;99.90;;;;;;4878814;29;20041;-84
2022/03/04 06:56:31;;;;;;;43.28;15.98;;;-0.80;99.90;;;;;;4894820;29;20513;-84
2022/03/04 06:58:57;;;;;;;47.38;17.40;;;-0.70;99.90;;;;;;4879419;29;20105;-84
2022/03/04 07:01:23;;;;;;;43.00;18.13;;;-0.70;99.90;;;;;;4879408;29;20051;-84
2022/03/04 07:03:48;;;;;;;49.15;18.70;;;-0.70;99.90;;;;;;4879294;29;20100;-84
2022/03/04 07:06:16;;;;;;;42.05;15.88;;;-0.70;99.90;;;;;;4913214;29;20059;-84
2022/03/04 07:08:42;;;;;;;42.28;14.25;;;-0.70;99.90;;;;;;4914977;29;20048;-86
2022/03/04 07:11:07;;;;;;;44.70;16.48;;;-0.60;99.90;;;;;;4935791;29;20515;-83
2022/03/04 07:13:33;;;;;;;48.42;16.58;;;-0.60;99.90;;;;;;4943641;29;20079;-83
2022/03/04 07:15:58;;;;;;;33.97;14.43;;;-0.70;99.90;;;;;;4902984;29;20463;-84
2022/03/04 07:18:24;;;;;;;38.17;15.68;;;-0.70;99.90;;;;;;4914147;29;20051;-85
2022/03/04 07:20:50;;;;;;;40.28;15.90;;;-0.70;99.90;;;;;;4897956;29;20040;-85
2022/03/04 07:23:16;;;;;;;40.35;15.02;;;-0.70;99.90;;;;;;4897687;29;20061;-85
2022/03/04 07:25:42;;;;;;;43.70;15.95;;;-0.70;99.90;;;;;;4897961;29;20096;-84
2022/03/04 07:28:08;;;;;;;37.22;16.05;;;-0.70;99.90;;;;;;4897890;29;20047;-85
2022/03/04 07:30:34;;;;;;;37.35;14.05;;;-0.70;99.90;;;;;;4913431;29;20048;-85
2022/03/04 07:33:01;;;;;;;42.53;16.05;;;-0.70;99.90;;;;;;4882419;29;20037;-85
2022/03/04 07:35:27;;;;;;;41.05;14.35;;;-0.70;99.90;;;;;;4897405;29;20135;-83
2022/03/04 07:37:52;;;;;;;42.08;15.25;;;-0.60;99.90;;;;;;4928399;29;20088;-83
2022/03/04 07:40:18;;;;;;;46.90;16.88;;;-0.60;99.90;;;;;;4896823;29;20453;-83
2022/03/04 07:42:44;;;;;;;43.58;16.92;;;-0.60;99.90;;;;;;4881183;29;20711;-83
2022/03/04 07:45:11;;;;;;;40.25;14.80;;;-0.60;99.90;;;;;;4895724;29;20092;-83
2022/03/04 07:47:38;;;;;;;41.13;15.35;;;-0.50;99.90;;;;;;4927999;29;20321;-83
2022/03/04 07:50:12;;;;;;;41.90;16.33;;;-0.50;99.90;;;;;;4927243;29;20080;-83
2022/03/04 07:52:38;;;;;;;41.75;14.82;;;-0.40;99.90;;;;;;4912433;29;20043;-83
2022/03/04 07:55:06;;;;;;;36.88;14.70;;;-0.30;99.90;;;;;;4912949;29;20123;-83
2022/03/04 07:57:32;;;;;;;37.47;14.70;;;-0.30;99.90;;;;;;4912044;29;20488;-83
2022/03/04 07:59:58;;;;;;;44.40;16.08;;;-0.30;99.90;;;;;;4899150;29;20080;-84
2022/03/04 08:02:23;;;;;;;45.95;16.38;;;-0.40;99.90;;;;;;4898709;29;20131;-84
2022/03/04 08:04:49;;;;;;;41.33;16.15;;;-0.30;99.90;;;;;;4898139;29;20139;-85
2022/03/04 08:07:15;;;;;;;40.85;15.23;;;-0.30;99.90;;;;;;4913438;29;20041;-85
2022/03/04 08:09:41;;;;;;;43.30;15.75;;;-0.30;99.90;;;;;;4913284;29;20092;-85
2022/03/04 08:12:07;;;;;;;41.10;14.13;;;-0.30;99.90;;;;;;4899584;29;20036;-84
2022/03/04 08:14:33;;;;;;;36.00;14.70;;;-0.20;99.90;;;;;;4900632;29;20045;-84
2022/03/04 08:16:59;;;;;;;40.42;15.15;;;-0.20;99.90;;;;;;4914742;29;20518;-84
2022/03/04 08:19:24;;;;;;;42.53;16.33;;;-0.20;99.90;;;;;;4913282;29;20087;-84
2022/03/04 08:21:50;;;;;;;43.60;15.70;;;-0.20;99.90;;;;;;4885422;29;20496;-84
2022/03/04 08:24:16;;;;;;;45.53;16.00;;;-0.20;99.90;;;;;;4933156;29;20047;-84
2022/03/04 08:26:45;;;;;;;35.78;15.35;;;-0.20;99.90;;;;;;4912874;29;20547;-84
2022/03/04 08:29:11;;;;;;;36.55;14.93;;;-0.10;99.90;;;;;;4913875;29;20044;-85
2022/03/04 08:31:37;;;;;;;37.78;14.20;;;0.00;99.90;;;;;;4897585;29;20037;-84
2022/03/04 08:34:04;;;;;;;38.70;14.88;;;-0.10;99.90;;;;;;4897384;29;20048;-80
2022/03/04 08:36:29;;;;;;;39.80;14.35;;;0.00;99.90;;;;;;4899158;29;20107;-80
2022/03/04 08:38:55;;;;;;;42.65;14.50;;;0.00;99.90;;;;;;4898017;29;20084;-80
2022/03/04 08:41:21;;;;;;;36.85;14.30;;;0.00;99.90;;;;;;4900235;29;20109;-80
2022/03/04 08:56:38;;;;;;;42.40;15.13;;;0.40;99.90;;;;;;4884541;29;20156;-81
2022/03/04 08:59:04;;;;;;;43.13;15.07;;;0.60;99.90;;;;;;4865630;29;20045;-81
2022/03/04 09:01:30;;;;;;;38.78;14.35;;;0.80;99.90;;;;;;4864402;29;20120;-81
2022/03/04 09:03:56;;;;;;;41.80;14.60;;;0.80;99.90;;;;;;4880697;29;20049;-83
2022/03/04 09:06:21;;;;;;;39.50;14.55;;;0.80;99.90;;;;;;4887499;29;20044;-81
2022/03/04 09:08:47;;;;;;;32.00;12.77;;;0.70;99.90;;;;;;4884845;29;20047;-81
2022/03/04 09:11:13;;;;;;;37.90;14.25;;;0.70;99.90;;;;;;4888466;29;20045;-81
2022/03/04 09:13:39;;;;;;;36.60;14.57;;;0.60;99.90;;;;;;4901862;29;20051;-81
2022/03/04 09:16:05;;;;;;;43.80;15.93;;;0.60;99.90;;;;;;4867963;29;20402;-86
2022/03/04 09:18:30;;;;;;;48.92;17.27;;;0.70;99.90;;;;;;4880466;29;20093;-86
2022/03/04 09:20:56;;;;;;;39.95;15.48;;;0.90;99.90;;;;;;4880147;29;20080;-86
2022/03/04 09:24:28;;;;;;;39.22;14.40;;;0.90;99.90;;;;;;5224375;23;20087;-86
2022/03/04 09:27:39;;;;;;;40.65;16.00;;;0.90;99.90;;;;;;4912946;29;20056;-86
2022/03/04 09:30:13;;;;;;;40.72;13.68;;;1.10;99.90;;;;;;4907036;29;20051;-86
2022/03/04 09:32:52;;;;;;;;;;;;;;;;;;;;;
2022/03/04 09:35:33;;;;;;;39.33;15.18;;;1.20;99.90;;;;;;4899087;29;20048;-86
2022/03/04 09:38:07;;;;;;;40.20;15.38;;;1.30;99.90;;;;;;4898826;29;20044;-86
2022/03/04 09:40:33;;;;;;;47.88;17.67;;;1.30;99.90;;;;;;4883138;29;20079;-79
2022/03/04 09:43:07;;;;;;;42.30;17.25;;;1.40;99.90;;;;;;4899189;29;20079;-86
2022/03/04 09:45:36;;;;;;;44.33;16.58;;;1.50;99.90;;;;;;4883245;29;20048;-86
2022/03/04 09:48:04;;;;;;;43.53;16.38;;;1.60;99.90;;;;;;4895558;29;20503;-86
2022/03/04 09:50:31;;;;;;;44.13;17.77;;;2.00;99.90;;;;;;4879679;29;20516;-86
2022/03/04 09:52:56;;;;;;;42.95;15.63;;;2.80;99.90;;;;;;4895642;29;20208;-86
2022/03/04 09:55:22;;;;;;;35.15;13.85;;;3.30;99.90;;;;;;4895828;29;20127;-86
2022/03/04 09:57:48;;;;;;;38.40;15.57;;;3.30;99.90;;;;;;4889079;29;20044;-84
2022/03/04 10:00:15;;;;;;;36.90;14.70;;;2.90;99.90;;;;;;4901873;29;20040;-84
2022/03/04 10:02:40;;;;;;;37.42;15.35;;;2.70;99.90;;;;;;4898540;29;20135;-85
2022/03/04 10:05:08;;;;;;;44.05;17.30;;;2.60;99.90;;;;;;4898668;29;20115;-85
2022/03/04 10:07:42;;;;;;;43.05;17.02;;;2.50;99.90;;;;;;4885422;29;20123;-84
2022/03/04 10:10:16;;;;;;;40.00;15.90;;;2.40;99.90;;;;;;4879921;29;20036;-84
2022/03/04 10:12:56;;;;;;;42.03;15.68;;;2.30;99.90;;;;;;4879908;29;20036;-84
2022/03/04 10:15:26;;;;;;;37.38;14.65;;;2.10;99.90;;;;;;4880298;29;20424;-84
2022/03/04 10:17:58;;;;;;;39.15;16.08;;;2.00;99.90;;;;;;4895554;29;20047;-84
2022/03/04 10:20:36;;;;;;;;;;;2.00;99.90;;;;;;4865113;29;20049;-86
2022/03/04 10:23:18;;;;;;;47.40;16.20;;;2.00;99.90;;;;;;4880196;29;19923;-85
2022/03/04 10:25:47;;;;;;;39.25;15.15;;;2.00;99.90;;;;;;4879948;29;20052;-85
2022/03/04 10:28:17;;;;;;;38.17;14.82;;;2.00;99.90;;;;;;4880325;29;20504;-85
2022/03/04 10:30:48;;;;;;;40.88;15.35;;;2.00;99.90;;;;;;4880578;29;20135;-86
2022/03/04 10:33:19;;;;;;;37.63;14.30;;;2.30;99.90;;;;;;4866347;29;20049;-87
2022/03/04 10:35:50;;;;;;;36.35;13.90;;;2.60;99.90;;;;;;4883920;29;20037;-86
2022/03/04 10:38:22;;;;;;;40.20;14.90;;;3.00;99.90;;;;;;4867454;29;20370;-86
2022/03/04 10:40:51;;;;;;;36.53;14.10;;;3.20;99.90;;;;;;4882135;29;20045;-87
2022/03/04 10:43:27;;;;;;;36.33;14.73;;;3.50;99.90;;;;;;4880613;29;20039;-87
2022/03/04 10:46:14;;;;;;;35.70;14.00;;;3.60;99.90;;;;;;4883202;29;20044;-86
2022/03/04 10:48:54;;;;;;;46.40;18.27;;;3.80;99.90;;;;;;4887134;29;20044;-84
2022/03/04 10:51:38;;;;;;;37.58;15.30;;;3.90;99.90;;;;;;4890948;29;20076;-85
2022/03/04 10:54:15;;;;;;;40.13;15.18;;;3.90;99.90;;;;;;4889539;29;20040;-85
2022/03/04 10:57:01;;;;;;;36.08;15.95;;;3.80;99.90;;;;;;4883912;29;20052;-84
2022/03/04 10:59:27;;;;;;;37.88;14.60;;;3.90;99.90;;;;;;4883473;29;20040;-84
2022/03/04 11:01:55;;;;;;;36.83;14.23;;;3.70;99.90;;;;;;4883650;29;20531;-84
2022/03/04 11:04:22;;;;;;;36.25;14.48;;;3.70;99.90;;;;;;4882967;29;20047;-83
2022/03/04 11:06:49;;;;;;;38.85;15.07;;;3.80;99.90;;;;;;4886810;29;20041;-84
2022/03/04 11:09:27;;;;;;;38.22;13.55;;;3.90;99.90;;;;;;4882974;29;20408;-83
2022/03/04 11:11:53;;;;;;;42.30;15.98;;;4.10;99.90;;;;;;4883143;29;20040;-85
2022/03/04 11:14:22;;;;;;;34.72;14.32;;;4.10;99.90;;;;;;4882887;29;20241;-85
2022/03/04 11:16:49;;;;;;;30.50;13.13;;;4.20;99.90;;;;;;4883287;29;20036;-83
2022/03/04 11:19:16;;;;;;;34.85;14.30;;;4.30;99.90;;;;;;4867587;29;20076;-85
2022/03/04 11:21:44;;;;;;;32.60;14.63;;;4.10;99.90;;;;;;4882590;29;20040;-84
2022/03/04 11:24:10;;;;;;;34.53;13.90;;;4.30;99.90;;;;;;4898326;29;20177;-84
2022/03/04 11:26:37;;;;;;;38.13;15.25;;;4.30;99.90;;;;;;4882656;29;20128;-85
2022/03/04 11:29:05;;;;;;;33.55;13.38;;;4.20;99.90;;;;;;4882817;29;20041;-84
2022/03/04 11:31:32;;;;;;;32.78;13.80;;;4.20;99.90;;;;;;4882842;29;20404;-84
2022/03/04 11:34:00;;;;;;;30.33;14.02;;;4.30;99.90;;;;;;4882576;29;20135;-85
2022/03/04 11:36:27;;;;;;;61.22;28.38;;;4.40;99.90;;;;;;4882796;29;20044;-84
2022/03/04 11:38:55;;;;;;;32.13;13.13;;;4.40;99.90;;;;;;4899635;29;20111;-86
2022/03/04 11:41:42;;;;;;;30.75;12.48;;;4.60;99.90;;;;;;4866660;29;20143;-84
2022/03/04 11:44:18;;;;;;;30.60;13.18;;;4.70;99.90;;;;;;4866726;29;20040;-85
2022/03/04 11:46:54;;;;;;;32.50;13.40;;;4.80;99.90;;;;;;4881975;29;20519;-84
2022/03/04 11:49:30;;;;;;;25.42;11.50;;;4.90;99.90;;;;;;4882304;29;20045;-86
2022/03/04 11:52:09;;;;;;;31.23;12.60;;;5.00;99.90;;;;;;4893464;29;20040;-85
2022/03/04 11:54:41;;;;;;;29.02;12.63;;;5.10;99.90;;;;;;4885288;29;20084;-86
2022/03/04 11:57:23;;;;;;;27.27;11.43;;;5.10;99.90;;;;;;4901954;29;20040;-86
2022/03/04 12:00:04;;;;;;;29.55;11.85;;;5.20;99.90;;;;;;4901113;29;20051;-87
2022/03/04 12:02:44;;;;;;;25.48;11.52;;;5.20;99.90;;;;;;4901048;29;20044;-87
2022/03/04 12:05:13;;;;;;;;;;;5.30;99.90;;;;;;4901421;29;20036;-87
2022/03/04 12:07:43;;;;;;;23.20;11.02;;;5.50;99.90;;;;;;4900745;29;19982;-87
2022/03/04 12:10:26;;;;;;;22.92;10.85;;;5.50;99.90;;;;;;4900960;29;20036;-85
2022/03/04 12:13:09;;;;;;;24.52;10.35;;;5.60;99.90;;;;;;4900934;29;20075;-85
2022/03/04 12:15:39;;;;;;;23.27;10.48;;;5.60;99.90;;;;;;4900395;29;20087;-86
2022/03/04 12:18:28;;;;;;;23.85;9.90;;;5.60;99.90;;;;;;4900461;29;20147;-84
2022/03/04 12:21:00;;;;;;;27.15;10.80;;;5.50;99.90;;;;;;4899965;29;20052;-84
2022/03/04 12:23:37;;;;;;;24.90;10.93;;;5.60;99.90;;;;;;4899140;29;20104;-84
2022/03/04 12:26:39;;;;;;;20.77;9.60;;;5.80;99.90;;;;;;4882354;29;20303;-84
2022/03/04 12:29:16;;;;;;;22.40;10.65;;;5.90;99.90;;;;;;4881914;29;20523;-85
2022/03/04 12:31:44;;;;;;;22.58;10.48;;;6.00;99.90;;;;;;4881307;29;20488;-85
2022/03/04 12:34:21;;;;;;;26.17;12.10;;;6.20;99.90;;;;;;4912929;29;20096;-84
2022/03/04 12:36:55;;;;;;;19.60;9.95;;;6.40;99.90;;;;;;4881320;29;20040;-85
2022/03/04 12:39:22;;;;;;;18.75;9.05;;;6.60;99.90;;;;;;4912263;29;20044;-85
2022/03/04 12:41:49;;;;;;;17.20;7.75;;;6.70;99.90;;;;;;4880947;29;20111;-85
2022/03/04 12:44:14;;;;;;;16.27;8.07;;;6.70;99.90;;;;;;4880872;29;20086;-85
2022/03/04 12:46:41;;;;;;;22.00;8.98;;;6.70;99.90;;;;;;4881685;29;20091;-84
2022/03/04 12:49:08;;;;;;;19.05;8.15;;;6.80;99.90;;;;;;4881109;29;20057;-85
2022/03/04 12:51:36;;;;;;;17.75;8.57;;;6.90;99.90;;;;;;4892915;29;20044;-77
2022/03/04 12:54:18;;;;;;;16.65;7.82;;;6.90;99.90;;;;;;4915383;29;20048;-78
2022/03/04 12:56:53;;;;;;;17.73;7.95;;;6.90;99.90;;;;;;4887300;29;20086;-78
2022/03/04 12:59:19;;;;;;;16.83;7.28;;;6.90;99.90;;;;;;4899768;29;20607;-78
2022/03/04 13:01:46;;;;;;;17.27;8.88;;;7.10;99.90;;;;;;4897053;29;20406;-78
2022/03/04 13:04:12;;;;;;;15.15;7.20;;;7.20;99.90;;;;;;4899495;29;20040;-78
2022/03/04 13:06:38;;;;;;;18.17;7.82;;;7.30;99.90;;;;;;4884125;29;20048;-85
2022/03/04 13:09:05;;;;;;;15.85;6.82;;;7.30;99.90;;;;;;4899496;29;20046;-84
2022/03/04 13:11:43;;;;;;;16.33;7.63;;;7.30;99.90;;;;;;4900285;29;20744;-84
2022/03/04 13:14:09;;;;;;;16.27;7.80;;;7.30;99.90;;;;;;4900003;29;20036;-84
2022/03/04 13:16:48;;;;;;;16.02;7.50;;;7.40;99.90;;;;;;4899778;29;20044;-84
2022/03/04 13:19:25;;;;;;;18.00;7.75;;;7.40;99.90;;;;;;4900315;29;20099;-85
2022/03/04 13:22:09;;;;;;;14.82;7.03;;;7.50;99.90;;;;;;4900041;29;20067;-85
2022/03/04 13:24:40;;;;;;;16.67;7.05;;;7.50;99.90;;;;;;4900068;29;20118;-85
2022/03/04 13:27:11;;;;;;;19.13;7.40;;;7.60;99.90;;;;;;4900046;29;20040;-85
2022/03/04 13:29:45;;;;;;;19.75;8.48;;;7.60;99.90;;;;;;4899718;29;20087;-85
2022/03/04 13:32:18;;;;;;;17.67;7.63;;;7.60;99.90;;;;;;4884725;29;20100;-85
2022/03/04 13:34:49;;;;;;;16.17;7.63;;;7.70;99.90;;;;;;4880996;29;20048;-86
2022/03/04 13:37:16;;;;;;;16.92;7.88;;;7.70;99.90;;;;;;4880986;29;20056;-85
2022/03/04 13:39:44;;;;;;;15.38;6.85;;;7.60;99.90;;;;;;4880527;29;20067;-85
2022/03/04 13:42:16;;;;;;;17.55;6.95;;;7.60;99.90;;;;;;4880536;29;20773;-86
2022/03/04 13:44:51;;;;;;;23.97;8.97;;;7.70;99.90;;;;;;4880617;29;20048;-85
2022/03/04 13:47:46;;;;;;;24.63;9.60;;;7.70;99.90;;;;;;4880609;29;20387;-85
2022/03/04 13:50:20;;;;;;;20.67;8.13;;;7.80;99.90;;;;;;4912098;29;20441;-84
2022/03/04 13:52:48;;;;;;;23.40;8.88;;;7.90;99.90;;;;;;4865071;29;20052;-86
2022/03/04 13:55:14;;;;;;;19.67;8.57;;;7.90;99.90;;;;;;4896061;29;20052;-85
2022/03/04 13:57:40;;;;;;;18.27;6.63;;;8.00;99.90;;;;;;4911821;29;20048;-85
2022/03/04 14:00:16;;;;;;;19.13;8.52;;;8.10;99.90;;;;;;4911550;29;20456;-85
2022/03/04 14:02:41;;;;;;;20.45;8.25;;;8.10;99.90;;;;;;4880292;29;20037;-85
2022/03/04 14:05:08;;;;;;;18.85;7.10;;;8.10;99.90;;;;;;4865036;29;20044;-85
2022/03/04 14:08:08;;;;;;;18.70;7.85;;;8.10;99.90;;;;;;4912010;29;20056;-85
2022/03/04 14:10:35;;;;;;;20.48;8.48;;;8.10;99.90;;;;;;4911605;29;20413;-85
2022/03/04 14:13:03;;;;;;;24.52;8.90;;;8.00;99.90;;;;;;4911491;29;20131;-85
2022/03/04 14:15:28;;;;;;;21.27;8.50;;;8.00;99.90;;;;;;4911560;29;20048;-85
2022/03/04 14:17:55;;;;;;;21.42;8.68;;;8.10;99.90;;;;;;4880270;29;20515;-85
2022/03/04 14:20:21;;;;;;;22.85;9.82;;;8.10;99.90;;;;;;4881748;29;20500;-85
2022/03/04 14:22:47;;;;;;;19.45;8.68;;;8.10;99.90;;;;;;4886356;29;20041;-89
2022/03/04 14:25:13;;;;;;;23.95;8.85;;;8.10;99.90;;;;;;4873383;29;20091;-89
2022/03/04 14:28:13;;;;;;;;;;;;;;;;;;;;;
2022/03/04 14:31:51;;;;;;;20.75;9.43;;;8.20;99.90;;;;;;4900819;29;20449;-87
2022/03/04 14:34:33;;;;;;;24.27;9.68;;;8.20;99.90;;;;;;4866898;29;20048;-88
2022/03/04 14:37:14;;;;;;;22.53;9.50;;;8.20;99.90;;;;;;4836647;29;20045;-88
2022/03/04 14:39:50;;;;;;;18.92;9.05;;;8.20;99.90;;;;;;4865806;29;20065;-85
2022/03/04 14:42:22;;;;;;;25.95;9.68;;;8.20;99.90;;;;;;4883432;29;20060;-84
2022/03/04 14:45:20;;;;;;;23.45;11.05;;;8.10;99.90;;;;;;4915093;29;20040;-85
2022/03/04 14:47:52;;;;;;;26.10;9.75;;;8.10;99.90;;;;;;4866958;29;20516;-85
2022/03/04 14:50:25;;;;;;;24.27;10.32;;;8.10;99.90;;;;;;4883629;29;20056;-86
2022/03/04 14:53:35;;;;;;;23.25;9.63;;;8.10;99.90;;;;;;4914519;29;20053;-85
2022/03/04 14:56:39;;;;;;;22.60;9.13;;;8.10;99.90;;;;;;4914935;29;20096;-86
2022/03/04 14:59:21;;;;;;;22.60;10.05;;;8.00;99.90;;;;;;4879811;29;20500;-86
2022/03/04 15:02:02;;;;;;;22.63;8.77;;;8.10;99.90;;;;;;4883325;29;20079;-87
2022/03/04 15:04:28;;;;;;;21.95;8.77;;;8.10;99.90;;;;;;4915085;29;20036;-86
2022/03/04 15:07:10;;;;;;;22.80;10.60;;;8.00;99.90;;;;;;4914693;29;20110;-86
2022/03/04 15:09:46;;;;;;;21.80;9.60;;;7.90;99.90;;;;;;4914433;29;20100;-86
2022/03/04 15:12:44;;;;;;;24.35;9.60;;;8.00;99.90;;;;;;4899143;29;20052;-86
2022/03/04 15:15:37;;;;;;;24.38;9.57;;;8.00;99.90;;;;;;4929725;29;20083;-82
2022/03/04 15:18:57;;;;;;;;;;;;;;;;;;;;;
2022/03/04 15:25:52;;;;;;;22.70;9.35;;;7.80;99.90;;;;;;4874753;29;20057;-82
2022/03/04 15:28:18;;;;;;;20.92;9.07;;;7.80;99.90;;;;;;4869281;29;20189;-82
2022/03/04 15:30:44;;;;;;;21.05;9.07;;;7.80;99.90;;;;;;4883604;29;20048;-82
2022/03/04 15:33:10;;;;;;;22.15;9.07;;;7.90;99.90;;;;;;4870496;29;20048;-81
2022/03/04 15:35:36;;;;;;;25.33;9.63;;;7.80;99.90;;;;;;4887643;29;20089;-81
2022/03/04 15:38:02;;;;;;;23.10;10.45;;;7.80;99.90;;;;;;4890403;29;20040;-81
2022/03/04 15:40:28;;;;;;;22.35;9.43;;;7.70;99.90;;;;;;4887768;29;20052;-82
2022/03/04 15:42:54;;;;;;;24.52;9.63;;;7.70;99.90;;;;;;4885717;29;20036;-81
2022/03/04 15:45:20;;;;;;;26.00;10.23;;;7.70;99.90;;;;;;4891756;29;20051;-83
2022/03/04 15:47:46;;;;;;;25.45;10.73;;;7.60;99.90;;;;;;4889407;29;20041;-81
2022/03/04 15:50:13;;;;;;;26.90;11.07;;;7.50;99.90;;;;;;4872124;29;20413;-81
2022/03/04 15:52:39;;;;;;;22.73;9.75;;;7.40;99.90;;;;;;4887634;29;20065;-80
2022/03/04 15:55:06;;;;;;;21.67;10.05;;;7.40;99.90;;;;;;4888078;29;20052;-80
2022/03/04 15:57:32;;;;;;;27.30;11.38;;;7.40;99.90;;;;;;4889367;29;20040;-82
2022/03/04 15:59:57;;;;;;;28.60;11.50;;;7.40;99.90;;;;;;4905120;29;20044;-81
2022/03/04 16:02:23;;;;;;;24.77;11.43;;;7.30;99.90;;;;;;4905163;29;20040;-81
2022/03/04 16:04:48;;;;;;;22.50;10.30;;;7.30;99.90;;;;;;4889197;29;20467;-84
2022/03/04 16:07:14;;;;;;;21.92;9.77;;;7.20;99.90;;;;;;4901920;29;20103;-84
2022/03/04 16:09:40;;;;;;;27.42;11.50;;;7.10;99.90;;;;;;4901821;29;20052;-84
2022/03/04 16:12:06;;;;;;;24.40;10.20;;;7.10;99.90;;;;;;4902380;29;20131;-83
2022/03/04 16:14:31;;;;;;;24.83;10.50;;;7.00;99.90;;;;;;4901848;29;20051;-84
2022/03/04 16:16:57;;;;;;;24.75;10.40;;;7.00;99.90;;;;;;4902011;29;20072;-83
2022/03/04 16:19:22;;;;;;;20.98;8.80;;;6.90;99.90;;;;;;4902496;29;20152;-84
2022/03/04 16:21:48;;;;;;;21.42;8.98;;;6.80;99.90;;;;;;4886315;29;20150;-84
2022/03/04 16:24:13;;;;;;;28.50;10.52;;;6.80;99.90;;;;;;4901248;29;20467;-76
2022/03/04 16:26:40;;;;;;;21.15;8.90;;;6.70;99.90;;;;;;4906618;29;20046;-83
2022/03/04 16:29:06;;;;;;;21.08;8.68;;;6.70;99.90;;;;;;4906953;29;20047;-83
2022/03/04 16:31:31;;;;;;;18.92;8.27;;;6.60;99.90;;;;;;4929396;29;20036;-82
2022/03/04 16:33:57;;;;;;;21.40;8.52;;;6.60;99.90;;;;;;4913828;29;20605;-82
2022/03/04 16:36:22;;;;;;;19.55;7.25;;;6.50;99.90;;;;;;4916005;29;20048;-83
2022/03/04 16:38:48;;;;;;;16.80;6.70;;;6.50;99.90;;;;;;4911053;29;20063;-82
2022/03/04 16:41:14;;;;;;;18.30;8.27;;;6.50;99.90;;;;;;4908279;29;20082;-82
2022/03/04 16:43:41;;;;;;;19.75;8.45;;;6.40;99.90;;;;;;4907853;29;20036;-81
2022/03/04 16:46:07;;;;;;;19.33;8.35;;;6.30;99.90;;;;;;4914249;29;20069;-80
2022/03/04 16:48:33;;;;;;;18.40;7.72;;;6.20;99.90;;;;;;4915685;29;20040;-80
2022/03/04 16:50:59;;;;;;;20.20;8.18;;;6.20;99.90;;;;;;4915359;29;20043;-80
2022/03/04 16:53:26;;;;;;;18.33;7.18;;;6.10;99.90;;;;;;4912524;29;20058;-80
2022/03/04 16:55:52;;;;;;;20.30;8.18;;;6.00;99.90;;;;;;4911157;29;20054;-80
2022/03/04 16:58:19;;;;;;;18.40;7.70;;;5.90;99.90;;;;;;4910820;29;20068;-80
2022/03/04 17:00:47;;;;;;;21.40;7.95;;;5.90;99.90;;;;;;4912218;29;20036;-80
2022/03/04 17:03:17;;;;;;;16.08;7.43;;;5.80;99.90;;;;;;4909901;29;20040;-80
2022/03/04 17:05:44;;;;;;;20.25;9.48;;;5.80;99.90;;;;;;4907573;29;20040;-80
2022/03/04 17:08:10;;;;;;;20.23;6.78;;;5.70;99.90;;;;;;4912862;29;20059;-80
2022/03/04 17:10:36;;;;;;;18.60;7.65;;;5.70;99.90;;;;;;4919725;29;20236;-80
2022/03/04 17:13:02;;;;;;;18.77;7.50;;;5.60;99.90;;;;;;4916034;29;20040;-82
2022/03/04 17:15:30;;;;;;;18.05;8.30;;;5.50;99.90;;;;;;4912708;29;20060;-82
2022/03/04 17:17:56;;;;;;;16.55;7.15;;;5.40;99.90;;;;;;4910699;29;20048;-82
2022/03/04 17:20:22;;;;;;;16.38;7.55;;;5.40;99.90;;;;;;4893626;29;20048;-82
2022/03/04 17:22:48;;;;;;;15.70;7.63;;;5.30;99.90;;;;;;4911104;29;20051;-81
2022/03/04 17:25:14;;;;;;;19.98;7.68;;;5.20;99.90;;;;;;4910438;29;20052;-81
2022/03/04 17:27:40;;;;;;;19.48;7.30;;;5.10;99.90;;;;;;4911053;29;20071;-81
2022/03/04 17:30:07;;;;;;;19.63;8.05;;;5.00;99.90;;;;;;4910611;29;20472;-81
2022/03/04 17:32:33;;;;;;;19.60;7.70;;;4.90;99.90;;;;;;4903027;29;20055;-78
2022/03/04 17:35:00;;;;;;;19.05;7.97;;;4.80;99.90;;;;;;4899176;29;20056;-78
2022/03/04 17:37:27;;;;;;;16.45;7.93;;;4.70;99.90;;;;;;4899159;29;20503;-79
2022/03/04 17:39:56;;;;;;;17.58;7.38;;;4.60;99.90;;;;;;4898638;29;20059;-79
2022/03/04 17:42:22;;;;;;;24.08;10.15;;;4.50;99.90;;;;;;4899565;29;20048;-85
2022/03/04 17:44:48;;;;;;;19.17;8.27;;;4.50;99.90;;;;;;4899504;29;20551;-86
2022/03/04 17:47:13;;;;;;;20.00;8.20;;;4.50;99.90;;;;;;4899313;29;20096;-86
2022/03/04 17:49:39;;;;;;;19.02;8.50;;;4.40;99.90;;;;;;4899035;29;20048;-85
2022/03/04 17:57:17;;;;;;;17.63;6.93;;;4.20;99.90;;;;;;5053719;23;20455;-85
2022/03/04 17:59:43;;;;;;;19.88;8.30;;;4.20;99.90;;;;;;4917721;29;20039;-86
2022/03/04 19:37:41;;;;;;;18.88;8.65;;;2.80;99.90;;;;;;5216995;24;20062;-84
2022/03/04 19:40:09;;;;;;;16.35;7.43;;;2.80;99.90;;;;;;4841725;29;20073;-84
2022/03/04 19:42:36;;;;;;;16.30;7.47;;;2.70;99.90;;;;;;4839295;29;20042;-85
2022/03/04 19:45:02;;;;;;;15.45;6.18;;;2.60;99.90;;;;;;4839311;29;20049;-85
2022/03/04 19:47:27;;;;;;;18.88;7.57;;;2.60;99.90;;;;;;4824097;29;20046;-86
2022/03/04 19:49:53;;;;;;;18.60;8.20;;;2.60;99.90;;;;;;4808812;29;20106;-85
2022/03/04 19:59:43;;;;;;;15.07;7.47;;;2.50;99.90;;;;;;4764722;30;20056;-85
2022/03/04 20:02:34;;;;;;;17.90;7.38;;;2.40;99.90;;;;;;4784441;29;20053;-85
2022/03/04 20:05:38;;;;;;;16.67;8.07;;;2.30;99.90;;;;;;4842293;29;20053;-85
2022/03/04 20:15:45;;;;;;;11.23;5.90;;;2.10;99.90;;;;;;4843357;29;20497;-85
2022/03/04 20:31:04;;;;;;;12.32;6.03;;;1.80;99.90;;;;;;4709626;30;20055;-85
2022/03/04 20:50:36;;;;;;;11.43;5.65;;;1.40;99.90;;;;;;4709488;30;20425;-85
2022/03/04 21:14:49;;;;;;;10.45;5.65;;;1.00;99.90;;;;;;4866098;24;20050;-86
2022/03/04 21:17:15;;;;;;;15.13;6.32;;;1.00;99.90;;;;;;4822811;29;20042;-85
2022/03/04 21:19:40;;;;;;;19.52;6.22;;;0.90;99.90;;;;;;4840826;29;20197;-85
2022/03/04 22:06:00;;;;;;;14.88;7.88;;;0.40;99.90;;;;;;4860296;29;20057;-82
2022/03/04 22:08:25;;;;;;;26.15;8.48;;;0.50;99.90;;;;;;4846149;29;20111;-82
2022/03/04 22:10:52;;;;;;;16.08;8.00;;;0.40;99.90;;;;;;4846428;29;20048;-83
2022/03/04 22:13:18;;;;;;;17.50;7.72;;;0.40;99.90;;;;;;4847210;29;20089;-83
2022/03/04 22:15:44;;;;;;;18.77;8.43;;;0.30;99.90;;;;;;4848551;29;20501;-83
2022/03/04 22:18:09;;;;;;;27.90;9.02;;;0.30;99.90;;;;;;4847907;29;20061;-83
2022/03/04 22:20:35;;;;;;;16.15;7.55;;;0.20;99.90;;;;;;4847313;29;20049;-83
2022/03/04 22:23:00;;;;;;;15.57;7.03;;;0.20;99.90;;;;;;4832328;29;20048;-82
2022/03/04 22:25:26;;;;;;;14.40;7.30;;;0.10;99.90;;;;;;4849438;29;20124;-82
2022/03/04 22:27:52;;;;;;;16.55;7.65;;;0.10;99.90;;;;;;4847413;29;20042;-82
2022/03/04 22:30:17;;;;;;;18.38;7.13;;;0.10;99.90;;;;;;4867501;29;20094;-80
2022/03/04 22:32:43;;;;;;;17.27;7.95;;;0.10;99.90;;;;;;4850766;29;20073;-80
2022/03/04 22:35:09;;;;;;;22.90;8.05;;;0.10;99.90;;;;;;4847524;29;20406;-80
2022/03/04 22:37:35;;;;;;;15.82;7.65;;;0.10;99.90;;;;;;4847368;29;20045;-81
2022/03/04 22:40:01;;;;;;;16.30;7.13;;;0.00;99.90;;;;;;4833019;29;20033;-80
2022/03/04 22:42:27;;;;;;;18.33;8.13;;;0.00;99.90;;;;;;4835973;29;20073;-80
2022/03/04 22:44:52;;;;;;;15.70;7.00;;;-0.10;99.90;;;;;;4852055;29;20047;-80
2022/03/04 22:47:18;;;;;;;18.50;7.57;;;0.00;99.90;;;;;;4850683;29;20171;-80
2022/03/04 22:49:44;;;;;;;24.35;9.30;;;0.00;99.90;;;;;;4850486;29;20037;-80
2022/03/04 22:52:09;;;;;;;19.88;9.65;;;0.00;99.90;;;;;;4835407;29;20037;-80
2022/03/04 22:54:35;;;;;;;18.40;7.68;;;0.00;99.90;;;;;;4851716;29;20118;-80
2022/03/04 22:57:01;;;;;;;15.27;7.85;;;0.00;99.90;;;;;;4852285;29;20059;-80
2022/03/04 22:59:26;;;;;;;17.45;7.35;;;-0.10;99.90;;;;;;4851270;29;20045;-80
2022/03/04 23:01:52;;;;;;;17.23;8.43;;;-0.20;99.90;;;;;;4851007;29;20052;-80